Time;durP1;ratioP1;P1;durP2;ratioP2;P2;SDS_P1;SDS_P2;PMS_P1;PMS_P2;Temp;Humidity;BMP_temperature;BMP_pressure;BME280_temperature;BME280_humidity;BME280_pressure;Samples;Min_cycle;Max_cycle;Signal;HPM_P1;HPM_P2
2023/05/13 09:32:22;;;;;;;5.97;4.77;;;;;;;;;;4954037;28;20840;-90
2023/05/13 09:34:48;;;;;;;5.30;3.97;;;;;;;;;;4939860;29;20427;-89
2023/05/13 09:37:14;;;;;;;8.23;4.40;;;;;;;;;;4959230;28;20446;-90
2023/05/13 09:39:41;;;;;;;4.07;3.63;;;;;;;;;;4942961;29;20430;-89
2023/05/13 09:42:16;;;;;;;4.97;3.40;;;;;;;;;;4941494;28;20431;-90
2023/05/13 09:44:45;;;;;;;5.27;3.90;;;;;;;;;;4955386;28;20417;-92
2023/05/13 09:47:12;;;;;;;5.60;3.60;;;;;;;;;;4962740;28;20466;-91
2023/05/13 09:49:39;;;;;;;4.20;3.80;;;;;;;;;;4956402;28;20811;-90
2023/05/13 09:52:10;;;;;;;4.13;3.67;;;;;;;;;;4962457;28;20454;-91
2023/05/13 09:54:36;;;;;;;4.27;3.40;;;;;;;;;;4947813;28;20421;-91
2023/05/13 09:57:02;;;;;;;4.53;3.20;;;;;;;;;;4931812;29;20434;-91
2023/05/13 09:59:31;;;;;;;3.87;3.03;;;;;;;;;;4948856;28;20458;-90
2023/05/13 10:01:58;;;;;;;10.40;3.30;;;;;;;;;;4932876;29;20442;-89
2023/05/13 10:04:24;;;;;;;5.17;3.50;;;;;;;;;;4949872;29;20929;-90
2023/05/13 10:06:51;;;;;;;5.57;3.27;;;;;;;;;;4962799;28;20459;-90
2023/05/13 10:09:17;;;;;;;3.93;3.13;;;;;;;;;;4967746;28;20454;-89
2023/05/13 10:11:45;;;;;;;3.73;3.10;;;;;;;;;;4947102;29;20439;-90
2023/05/13 10:14:11;;;;;;;4.00;3.33;;;;;;;;;;4947786;29;20442;-89
2023/05/13 10:16:37;;;;;;;3.60;3.30;;;;;;;;;;4963112;28;20523;-90
2023/05/13 10:19:04;;;;;;;5.97;4.97;;;;;;;;;;4920951;29;20478;-90
2023/05/13 10:21:31;;;;;;;3.70;3.37;;;;;;;;;;4961978;28;20418;-91
2023/05/13 10:23:57;;;;;;;4.87;3.80;;;;;;;;;;4967423;28;21061;-90
2023/05/13 10:26:23;;;;;;;30.23;17.00;;;;;;;;;;4948141;29;20501;-89
2023/05/13 10:28:49;;;;;;;4.60;3.50;;;;;;;;;;4952138;28;20447;-90
2023/05/13 10:31:16;;;;;;;5.17;4.13;;;;;;;;;;4943692;29;20443;-90
2023/05/13 10:33:42;;;;;;;3.90;3.40;;;;;;;;;;4951914;29;20787;-90
2023/05/13 10:36:32;;;;;;;6.67;3.70;;;;;;;;;;4940072;28;20434;-90
2023/05/13 10:38:58;;;;;;;4.57;4.20;;;;;;;;;;4951039;28;20521;-90
2023/05/13 10:41:34;;;;;;;4.00;3.60;;;;;;;;;;4967793;28;20434;-90
2023/05/13 10:44:00;;;;;;;4.20;3.60;;;;;;;;;;4953104;28;21150;-90
2023/05/13 10:46:28;;;;;;;3.50;3.20;;;;;;;;;;4963140;28;20433;-90
2023/05/13 10:49:00;;;;;;;4.17;3.67;;;;;;;;;;4976418;28;20519;-90
2023/05/13 10:51:36;;;;;;;4.53;3.90;;;;;;;;;;4954490;28;20470;-90
2023/05/13 10:54:07;;;;;;;5.00;3.53;;;;;;;;;;4962625;29;20442;-89
2023/05/13 10:56:39;;;;;;;4.20;3.80;;;;;;;;;;4967114;28;20442;-90
2023/05/13 11:02:30;;;;;;;5.10;4.57;;;;;;;;;;4938015;29;21033;-90
2023/05/13 11:05:07;;;;;;;6.50;4.30;;;;;;;;;;4922959;29;20460;-90
2023/05/13 11:07:44;;;;;;;4.23;3.83;;;;;;;;;;4927888;29;20471;-90
2023/05/13 11:10:49;;;;;;;4.23;3.83;;;;;;;;;;4921050;29;20584;-90
2023/05/13 11:13:23;;;;;;;4.50;3.73;;;;;;;;;;4848020;29;20443;-90
2023/05/13 11:15:56;;;;;;;3.83;3.53;;;;;;;;;;4916016;29;20448;-90
2023/05/13 11:18:30;;;;;;;3.97;3.57;;;;;;;;;;4938754;29;20479;-91
2023/05/13 11:21:03;;;;;;;6.93;3.80;;;;;;;;;;4920977;29;20543;-91
2023/05/13 11:23:30;;;;;;;4.20;3.73;;;;;;;;;;4896041;29;20427;-90
2023/05/13 11:26:14;;;;;;;4.90;4.00;;;;;;;;;;4904286;29;20466;-90
2023/05/13 11:29:13;;;;;;;3.97;3.37;;;;;;;;;;4868837;29;20434;-91
2023/05/13 11:31:51;;;;;;;7.50;3.80;;;;;;;;;;4880885;29;20465;-90
2023/05/13 11:34:19;;;;;;;4.17;3.00;;;;;;;;;;4908321;29;20481;-91
2023/05/13 11:36:49;;;;;;;4.27;3.87;;;;;;;;;;4898801;29;20480;-90
2023/05/13 11:42:14;;;;;;;4.40;3.67;;;;;;;;;;4913901;29;20425;-90
2023/05/13 11:44:52;;;;;;;4.27;3.20;;;;;;;;;;4900251;29;20496;-91
2023/05/13 11:47:43;;;;;;;4.80;4.17;;;;;;;;;;4902089;29;20516;-91
2023/05/13 11:50:55;;;;;;;3.87;3.47;;;;;;;;;;4913745;29;20446;-91
2023/05/13 11:53:31;;;;;;;4.50;4.10;;;;;;;;;;4867000;29;20433;-91
2023/05/13 11:56:11;;;;;;;4.47;3.47;;;;;;;;;;4970644;28;21043;-91
2023/05/13 11:58:39;;;;;;;4.00;3.60;;;;;;;;;;4974652;28;20476;-91
2023/05/13 12:01:07;;;;;;;4.30;3.47;;;;;;;;;;4953964;29;20463;-91
2023/05/13 12:03:36;;;;;;;3.27;2.97;;;;;;;;;;4971175;28;20435;-91
2023/05/13 12:06:06;;;;;;;4.40;3.70;;;;;;;;;;4952898;28;20441;-91
2023/05/13 12:08:35;;;;;;;4.67;3.60;;;;;;;;;;4956712;28;20533;-91
2023/05/13 12:11:25;;;;;;;5.50;3.03;;;;;;;;;;4933718;29;20522;-91
2023/05/13 12:14:05;;;;;;;4.50;4.10;;;;;;;;;;4935182;29;20439;-90
2023/05/13 12:16:40;;;;;;;5.17;3.90;;;;;;;;;;4962555;28;20463;-90
2023/05/13 12:19:13;;;;;;;3.90;3.53;;;;;;;;;;4936438;29;20851;-92
2023/05/13 12:21:43;;;;;;;6.67;3.53;;;;;;;;;;4931952;29;20451;-91
2023/05/13 12:24:20;;;;;;;5.00;4.50;;;;;;;;;;4959233;28;20479;-92
2023/05/13 12:26:49;;;;;;;8.07;4.00;;;;;;;;;;4969741;28;20446;-91
2023/05/13 12:29:20;;;;;;;4.47;3.40;;;;;;;;;;4924158;29;20435;-92
2023/05/13 12:32:03;;;;;;;4.30;3.90;;;;;;;;;;4958770;28;20454;-92
2023/05/13 12:34:35;;;;;;;4.30;3.10;;;;;;;;;;4944744;28;20437;-92
2023/05/13 12:37:20;;;;;;;4.23;3.40;;;;;;;;;;4952298;29;20514;-92
2023/05/13 12:39:52;;;;;;;3.83;3.30;;;;;;;;;;4949128;29;20487;-91
2023/05/13 12:42:19;;;;;;;4.17;2.90;;;;;;;;;;4966358;28;20442;-91
2023/05/13 12:45:01;;;;;;;4.47;4.03;;;;;;;;;;4966680;28;20509;-91
2023/05/13 12:47:28;;;;;;;4.40;3.17;;;;;;;;;;4950592;28;20416;-91
2023/05/13 12:49:57;;;;;;;4.07;3.20;;;;;;;;;;4936328;29;20563;-91
2023/05/13 12:52:24;;;;;;;4.37;3.53;;;;;;;;;;4961848;28;20415;-91
2023/05/13 12:54:51;;;;;;;3.77;3.33;;;;;;;;;;4925142;29;20438;-91
2023/05/13 12:57:23;;;;;;;5.50;4.40;;;;;;;;;;4965057;28;20462;-91
2023/05/13 12:59:52;;;;;;;4.40;3.80;;;;;;;;;;4956921;28;20420;-89
2023/05/13 13:02:19;;;;;;;5.40;3.43;;;;;;;;;;4934364;28;20781;-91
2023/05/13 13:04:48;;;;;;;3.60;3.30;;;;;;;;;;4943983;29;20489;-91
2023/05/13 13:07:29;;;;;;;3.33;2.83;;;;;;;;;;4963794;28;20505;-91
2023/05/13 13:10:00;;;;;;;4.60;3.70;;;;;;;;;;4956225;28;20441;-92
2023/05/13 13:12:35;;;;;;;4.23;3.60;;;;;;;;;;4928023;29;20500;-92
2023/05/13 13:15:05;;;;;;;3.27;2.73;;;;;;;;;;4961106;28;20833;-91
2023/05/13 13:17:37;;;;;;;3.70;3.30;;;;;;;;;;4946788;28;20448;-91
2023/05/13 13:20:09;;;;;;;3.13;2.83;;;;;;;;;;4971767;28;20427;-91
2023/05/13 13:22:39;;;;;;;3.70;2.83;;;;;;;;;;4932059;29;20880;-91
2023/05/13 13:25:12;;;;;;;3.53;3.00;;;;;;;;;;4963089;28;20458;-91
2023/05/13 13:27:48;;;;;;;4.57;4.17;;;;;;;;;;4924627;29;20457;-92
2023/05/13 13:30:22;;;;;;;4.67;3.43;;;;;;;;;;4958800;28;20471;-91
2023/05/13 13:32:58;;;;;;;4.00;3.70;;;;;;;;;;4967944;28;20447;-91
2023/05/13 13:35:26;;;;;;;7.50;3.60;;;;;;;;;;4938779;28;20455;-91
2023/05/13 13:37:56;;;;;;;5.47;3.63;;;;;;;;;;4939767;28;20586;-92
2023/05/13 13:40:23;;;;;;;3.33;3.03;;;;;;;;;;4952676;29;20438;-92
2023/05/13 13:42:50;;;;;;;3.50;3.20;;;;;;;;;;4961073;28;20484;-91
2023/05/13 13:45:17;;;;;;;5.63;3.80;;;;;;;;;;4924885;29;20502;-92
2023/05/13 13:47:43;;;;;;;3.80;3.00;;;;;;;;;;4959259;28;20462;-91
2023/05/13 13:50:11;;;;;;;4.70;3.80;;;;;;;;;;4967263;28;20458;-91
2023/05/13 13:52:37;;;;;;;5.67;2.80;;;;;;;;;;4969607;28;20439;-90
2023/05/13 13:55:03;;;;;;;4.20;3.37;;;;;;;;;;4964518;28;20937;-91
2023/05/13 13:57:29;;;;;;;4.40;3.47;;;;;;;;;;4956688;28;20443;-92
2023/05/13 13:59:55;;;;;;;6.13;3.87;;;;;;;;;;4948182;28;20430;-91
2023/05/13 14:02:21;;;;;;;4.10;3.70;;;;;;;;;;4944147;28;20526;-92
2023/05/13 14:04:48;;;;;;;4.40;4.00;;;;;;;;;;4961713;28;20482;-92
2023/05/13 14:07:16;;;;;;;4.50;3.37;;;;;;;;;;4963926;28;20426;-92
2023/05/13 14:09:42;;;;;;;4.10;3.70;;;;;;;;;;4926970;29;20434;-91
2023/05/13 14:12:08;;;;;;;4.43;2.57;;;;;;;;;;4931875;28;20847;-91
2023/05/13 14:14:34;;;;;;;3.37;3.03;;;;;;;;;;4947611;29;20490;-91
2023/05/13 14:17:00;;;;;;;3.87;3.20;;;;;;;;;;4937038;28;20421;-91
2023/05/13 14:19:26;;;;;;;4.43;4.03;;;;;;;;;;4945457;28;20465;-91
2023/05/13 14:21:52;;;;;;;4.57;3.60;;;;;;;;;;4961539;28;20696;-92
2023/05/13 14:24:18;;;;;;;3.93;3.10;;;;;;;;;;4960084;28;20458;-92
2023/05/13 14:26:44;;;;;;;4.27;3.20;;;;;;;;;;4961935;28;20439;-93
2023/05/13 14:29:10;;;;;;;4.67;3.10;;;;;;;;;;4930584;28;20972;-91
2023/05/13 14:31:36;;;;;;;3.40;3.00;;;;;;;;;;4943287;29;20477;-92
2023/05/13 14:34:04;;;;;;;3.60;3.00;;;;;;;;;;4940751;28;20839;-92
2023/05/13 14:36:30;;;;;;;4.80;3.47;;;;;;;;;;4951507;28;20426;-94
2023/05/13 14:38:56;;;;;;;3.70;3.40;;;;;;;;;;4966244;28;20543;-91
2023/05/13 14:41:24;;;;;;;3.80;3.00;;;;;;;;;;4944772;29;20459;-91
2023/05/13 14:43:50;;;;;;;4.93;4.30;;;;;;;;;;4964594;28;20972;-91
2023/05/13 14:46:16;;;;;;;6.17;3.43;;;;;;;;;;4957596;28;20475;-91
2023/05/13 14:48:42;;;;;;;4.87;3.70;;;;;;;;;;4958666;28;20823;-91
2023/05/13 14:51:11;;;;;;;5.33;3.70;;;;;;;;;;4921122;29;20477;-92
2023/05/13 14:53:37;;;;;;;3.93;3.50;;;;;;;;;;4963383;28;20435;-91
2023/05/13 14:56:03;;;;;;;3.97;3.57;;;;;;;;;;4926790;28;20450;-91
2023/05/13 14:58:29;;;;;;;5.60;3.30;;;;;;;;;;4948490;28;20489;-90
2023/05/13 15:00:55;;;;;;;3.60;3.27;;;;;;;;;;4952130;29;20431;-90
2023/05/13 15:03:21;;;;;;;4.23;3.60;;;;;;;;;;4960276;28;20512;-90
2023/05/13 15:05:47;;;;;;;3.63;3.33;;;;;;;;;;4958313;28;20450;-91
2023/05/13 15:08:13;;;;;;;5.53;3.63;;;;;;;;;;4930620;28;20505;-91
2023/05/13 15:10:39;;;;;;;6.23;4.47;;;;;;;;;;4949806;29;20491;-91
2023/05/13 15:13:05;;;;;;;5.53;4.40;;;;;;;;;;4963907;28;20434;-91
2023/05/13 15:15:32;;;;;;;4.60;4.00;;;;;;;;;;4941042;29;20446;-91
2023/05/13 15:17:58;;;;;;;4.10;3.70;;;;;;;;;;4934075;28;21088;-89
2023/05/13 15:20:24;;;;;;;4.20;3.77;;;;;;;;;;4954404;29;20461;-91
2023/05/13 15:22:50;;;;;;;4.10;3.70;;;;;;;;;;4963817;28;20466;-91
2023/05/13 15:25:16;;;;;;;5.93;4.00;;;;;;;;;;4955273;28;20798;-91
2023/05/13 15:27:42;;;;;;;4.40;4.00;;;;;;;;;;4955568;28;20437;-91
2023/05/13 15:30:08;;;;;;;3.80;3.40;;;;;;;;;;4960310;28;20968;-91
2023/05/13 15:32:34;;;;;;;3.87;3.03;;;;;;;;;;4962133;28;20841;-91
2023/05/13 15:35:00;;;;;;;5.00;4.47;;;;;;;;;;4966743;28;20454;-91
2023/05/13 15:37:26;;;;;;;4.67;4.20;;;;;;;;;;4949324;29;20444;-91
2023/05/13 15:39:52;;;;;;;7.10;4.67;;;;;;;;;;4960621;28;20467;-91
2023/05/13 15:42:18;;;;;;;4.20;3.80;;;;;;;;;;4932248;29;20442;-92
2023/05/13 15:44:44;;;;;;;3.53;3.23;;;;;;;;;;4949357;28;20441;-92
2023/05/13 15:47:10;;;;;;;4.27;3.63;;;;;;;;;;4967091;28;20446;-90
2023/05/13 15:49:36;;;;;;;5.83;4.43;;;;;;;;;;4967054;28;20430;-91
2023/05/13 15:52:03;;;;;;;9.83;3.90;;;;;;;;;;4958337;28;20429;-92
2023/05/13 15:54:29;;;;;;;4.73;3.87;;;;;;;;;;4930934;29;20435;-92
2023/05/13 15:56:57;;;;;;;4.77;4.30;;;;;;;;;;4941363;29;20458;-92
2023/05/13 15:59:23;;;;;;;4.60;3.60;;;;;;;;;;4944825;28;20471;-92
2023/05/13 16:01:49;;;;;;;4.63;3.80;;;;;;;;;;4957131;28;20439;-92
2023/05/13 16:04:15;;;;;;;4.37;3.97;;;;;;;;;;4971109;28;20834;-92
2023/05/13 16:06:41;;;;;;;4.83;3.83;;;;;;;;;;4934877;29;20487;-92
2023/05/13 16:09:07;;;;;;;4.10;3.70;;;;;;;;;;4956241;28;20454;-91
2023/05/13 16:11:33;;;;;;;5.63;4.50;;;;;;;;;;4947182;29;20438;-92
2023/05/13 16:14:00;;;;;;;4.33;3.93;;;;;;;;;;4967539;28;20887;-92
2023/05/13 16:16:26;;;;;;;5.67;4.00;;;;;;;;;;4947579;29;20439;-92
2023/05/13 16:18:52;;;;;;;4.53;4.10;;;;;;;;;;4944324;29;20491;-92
2023/05/13 16:21:18;;;;;;;5.07;4.07;;;;;;;;;;4961822;28;20433;-92
2023/05/13 16:23:44;;;;;;;4.30;3.90;;;;;;;;;;4968501;28;20438;-92
2023/05/13 16:26:10;;;;;;;4.67;4.10;;;;;;;;;;4960210;28;20513;-92
2023/05/13 16:28:36;;;;;;;5.47;4.47;;;;;;;;;;4947238;29;20454;-93
2023/05/13 16:31:02;;;;;;;5.07;4.20;;;;;;;;;;4942693;29;22652;-91
2023/05/13 16:33:29;;;;;;;5.60;4.07;;;;;;;;;;4964900;28;20485;-92
2023/05/13 16:35:55;;;;;;;4.50;4.10;;;;;;;;;;4951146;29;20439;-92
2023/05/13 16:38:21;;;;;;;4.50;4.10;;;;;;;;;;4969456;28;20497;-91
2023/05/13 16:40:47;;;;;;;6.37;4.33;;;;;;;;;;4966266;28;20898;-93
2023/05/13 16:43:13;;;;;;;4.63;4.20;;;;;;;;;;4946133;29;20534;-92
2023/05/13 16:45:39;;;;;;;5.97;4.20;;;;;;;;;;4924425;29;20447;-91
2023/05/13 16:48:05;;;;;;;7.30;4.90;;;;;;;;;;4945266;29;20474;-91
2023/05/13 16:50:31;;;;;;;4.57;3.77;;;;;;;;;;4942695;29;20438;-91
2023/05/13 16:52:57;;;;;;;4.73;4.23;;;;;;;;;;4964760;28;20461;-92
2023/05/13 16:55:24;;;;;;;4.03;3.63;;;;;;;;;;4929829;29;20499;-92
2023/05/13 16:57:52;;;;;;;4.37;3.97;;;;;;;;;;4905155;29;20524;-92
2023/05/13 17:00:18;;;;;;;4.60;3.53;;;;;;;;;;4906890;29;20463;-93
2023/05/13 17:02:44;;;;;;;4.30;3.90;;;;;;;;;;4900415;29;20476;-91
2023/05/13 17:05:10;;;;;;;4.30;3.90;;;;;;;;;;4913667;29;20444;-91
2023/05/13 17:07:36;;;;;;;3.50;3.13;;;;;;;;;;4906067;29;20474;-91
2023/05/13 17:10:02;;;;;;;5.70;3.90;;;;;;;;;;4903498;29;20437;-91
2023/05/13 17:12:28;;;;;;;4.83;4.00;;;;;;;;;;4901835;29;20642;-92
2023/05/13 17:14:55;;;;;;;4.57;3.73;;;;;;;;;;4900876;29;20473;-92
2023/05/13 17:17:21;;;;;;;3.83;3.50;;;;;;;;;;4906305;29;20432;-92
2023/05/13 17:19:47;;;;;;;4.10;3.30;;;;;;;;;;4903207;29;20505;-91
2023/05/13 17:22:13;;;;;;;4.27;3.87;;;;;;;;;;4888424;29;20475;-91
2023/05/13 17:24:39;;;;;;;5.80;4.27;;;;;;;;;;4864756;29;20435;-91
2023/05/13 17:27:05;;;;;;;4.27;3.87;;;;;;;;;;4874982;29;20430;-91
2023/05/13 17:29:31;;;;;;;5.80;4.53;;;;;;;;;;4879159;29;20533;-91
2023/05/13 17:31:57;;;;;;;5.93;4.03;;;;;;;;;;4891490;29;20478;-91
2023/05/13 17:34:24;;;;;;;4.90;4.50;;;;;;;;;;4879543;29;20473;-91
2023/05/13 17:36:50;;;;;;;3.97;3.57;;;;;;;;;;4881899;29;20458;-91
2023/05/13 17:39:16;;;;;;;3.40;3.10;;;;;;;;;;4900038;29;20476;-91
2023/05/13 17:41:42;;;;;;;4.40;3.90;;;;;;;;;;4882630;29;21045;-92
2023/05/13 17:44:08;;;;;;;7.53;3.90;;;;;;;;;;4870427;29;20501;-91
2023/05/13 17:46:34;;;;;;;4.57;3.50;;;;;;;;;;4873591;29;20441;-91
2023/05/13 17:49:00;;;;;;;5.63;4.67;;;;;;;;;;4902994;29;20461;-92
2023/05/13 17:51:26;;;;;;;6.30;4.10;;;;;;;;;;4873672;29;21031;-91
2023/05/13 17:53:52;;;;;;;4.80;4.30;;;;;;;;;;4885428;29;20445;-91
2023/05/13 17:56:18;;;;;;;4.70;4.20;;;;;;;;;;4941896;28;20439;-91
2023/05/13 17:58:44;;;;;;;4.73;3.80;;;;;;;;;;4959222;28;20469;-91
2023/05/13 18:01:10;;;;;;;5.23;4.03;;;;;;;;;;4963065;28;20435;-93
2023/05/13 18:03:36;;;;;;;7.53;4.53;;;;;;;;;;4966333;28;20446;-93
2023/05/13 18:06:02;;;;;;;5.57;4.50;;;;;;;;;;4949231;28;20453;-93
2023/05/13 18:08:28;;;;;;;5.07;4.57;;;;;;;;;;4944817;29;20944;-93
2023/05/13 18:10:54;;;;;;;4.80;4.10;;;;;;;;;;4961394;28;20466;-93
2023/05/13 18:13:20;;;;;;;4.50;4.10;;;;;;;;;;4948566;29;20438;-93
2023/05/13 18:15:46;;;;;;;5.40;4.30;;;;;;;;;;4969242;28;20431;-92
2023/05/13 18:18:12;;;;;;;5.47;4.80;;;;;;;;;;4958151;28;20461;-91
2023/05/13 18:20:39;;;;;;;4.23;3.50;;;;;;;;;;4948864;29;20438;-93
2023/05/13 18:23:05;;;;;;;4.90;4.40;;;;;;;;;;4947217;28;20968;-91
2023/05/13 18:25:31;;;;;;;5.67;4.77;;;;;;;;;;4930916;28;20469;-93
2023/05/13 18:27:57;;;;;;;5.83;4.70;;;;;;;;;;4961977;28;20438;-91
2023/05/13 18:30:24;;;;;;;5.10;4.60;;;;;;;;;;4958274;28;20432;-92
2023/05/13 18:32:50;;;;;;;5.50;4.90;;;;;;;;;;4942337;29;20963;-92
2023/05/13 18:35:18;;;;;;;7.37;4.77;;;;;;;;;;4964705;28;20452;-92
2023/05/13 18:37:45;;;;;;;37.07;26.10;;;;;;;;;;4960080;28;20491;-91
2023/05/13 18:40:11;;;;;;;10.83;8.40;;;;;;;;;;4929674;29;20466;-92
2023/05/13 18:42:37;;;;;;;8.30;6.67;;;;;;;;;;4963994;28;20435;-92
2023/05/13 18:45:06;;;;;;;9.50;5.47;;;;;;;;;;4945229;29;20439;-92
2023/05/13 18:47:32;;;;;;;6.07;4.87;;;;;;;;;;4932248;29;20439;-92
2023/05/13 18:49:58;;;;;;;4.83;4.00;;;;;;;;;;4965060;28;20429;-92
2023/05/13 18:52:25;;;;;;;4.67;4.27;;;;;;;;;;4936736;29;20418;-92
2023/05/13 18:54:51;;;;;;;5.10;4.63;;;;;;;;;;4964458;28;20505;-92
2023/05/13 18:57:19;;;;;;;4.83;4.43;;;;;;;;;;4942623;28;20426;-92
2023/05/13 18:59:45;;;;;;;6.20;4.40;;;;;;;;;;4953435;29;20462;-92
2023/05/13 19:02:11;;;;;;;5.70;4.67;;;;;;;;;;4971024;28;20523;-91
2023/05/13 19:04:37;;;;;;;4.10;3.70;;;;;;;;;;4961539;28;20469;-93
2023/05/13 19:07:03;;;;;;;4.17;3.50;;;;;;;;;;4964910;28;20456;-93
2023/05/13 19:09:29;;;;;;;5.03;4.53;;;;;;;;;;4963613;28;20441;-92
2023/05/13 19:11:55;;;;;;;4.57;4.10;;;;;;;;;;4951784;29;20449;-92
2023/05/13 19:14:21;;;;;;;5.13;4.40;;;;;;;;;;4965724;28;20438;-92
2023/05/13 19:16:47;;;;;;;5.10;4.67;;;;;;;;;;4950069;28;20457;-93
2023/05/13 19:19:13;;;;;;;6.13;4.60;;;;;;;;;;4949804;28;20489;-92
2023/05/13 19:21:39;;;;;;;11.47;8.70;;;;;;;;;;4963864;28;20427;-92
2023/05/13 19:24:05;;;;;;;10.90;9.80;;;;;;;;;;4946162;29;20733;-92
2023/05/13 19:26:31;;;;;;;6.70;6.10;;;;;;;;;;4961254;28;20434;-92
2023/05/13 19:28:57;;;;;;;7.70;6.90;;;;;;;;;;4927226;28;20443;-92
2023/05/13 19:31:25;;;;;;;7.60;6.17;;;;;;;;;;4948863;28;20449;-93
2023/05/13 19:33:51;;;;;;;7.77;7.03;;;;;;;;;;4957632;28;20438;-92
2023/05/13 19:36:17;;;;;;;7.07;6.37;;;;;;;;;;4927597;28;20441;-92
2023/05/13 19:38:43;;;;;;;7.90;7.20;;;;;;;;;;4960152;28;20462;-92
2023/05/13 19:41:10;;;;;;;7.53;6.83;;;;;;;;;;4932140;28;20422;-95
2023/05/13 19:43:37;;;;;;;7.27;6.57;;;;;;;;;;4948425;29;20436;-94
2023/05/13 19:46:03;;;;;;;7.70;5.80;;;;;;;;;;4924802;29;20496;-93
2023/05/13 19:48:29;;;;;;;9.33;5.97;;;;;;;;;;4948538;29;20424;-94
2023/05/13 19:50:57;;;;;;;6.67;5.13;;;;;;;;;;4952339;29;20444;-92
2023/05/13 19:53:24;;;;;;;6.23;5.17;;;;;;;;;;4929562;29;20487;-93
2023/05/13 19:55:51;;;;;;;7.10;5.67;;;;;;;;;;4926926;29;20476;-93
2023/05/13 19:58:17;;;;;;;6.50;5.60;;;;;;;;;;4931736;29;20463;-94
2023/05/13 20:00:44;;;;;;;7.80;4.90;;;;;;;;;;4930714;29;20435;-93
2023/05/13 20:03:10;;;;;;;11.37;4.70;;;;;;;;;;4927481;29;20444;-93
2023/05/13 20:05:36;;;;;;;6.50;5.30;;;;;;;;;;4934741;29;20530;-93
2023/05/13 20:08:07;;;;;;;6.10;5.00;;;;;;;;;;4928264;29;20432;-93
2023/05/13 20:10:39;;;;;;;5.77;5.17;;;;;;;;;;4930995;29;21176;-93
2023/05/13 20:13:06;;;;;;;6.70;5.53;;;;;;;;;;4925277;29;20455;-94
2023/05/13 20:15:32;;;;;;;7.27;5.70;;;;;;;;;;4929825;29;20443;-93
2023/05/13 20:17:58;;;;;;;6.80;5.83;;;;;;;;;;4945962;29;20473;-93
2023/05/13 20:20:24;;;;;;;9.90;6.93;;;;;;;;;;4961179;28;21355;-94
2023/05/13 20:22:49;;;;;;;9.00;7.57;;;;;;;;;;4956727;28;20427;-94
2023/05/13 20:25:15;;;;;;;8.60;7.00;;;;;;;;;;4932939;28;20461;-94
2023/05/13 20:27:41;;;;;;;8.47;7.70;;;;;;;;;;4942817;29;20435;-94
2023/05/13 20:30:08;;;;;;;10.37;8.90;;;;;;;;;;4929619;28;20454;-94
2023/05/13 20:32:35;;;;;;;10.70;8.10;;;;;;;;;;4945302;29;20447;-93
2023/05/13 20:35:01;;;;;;;8.33;6.57;;;;;;;;;;4969681;28;20426;-94
2023/05/13 20:37:28;;;;;;;8.10;5.43;;;;;;;;;;4938104;29;20460;-94
2023/05/13 20:39:54;;;;;;;9.63;7.97;;;;;;;;;;4960517;28;20487;-94
2023/05/13 20:42:23;;;;;;;7.87;6.37;;;;;;;;;;4925344;28;20430;-93
2023/05/13 20:44:49;;;;;;;5.77;5.17;;;;;;;;;;4925746;29;20439;-93
2023/05/13 20:47:15;;;;;;;7.67;6.63;;;;;;;;;;4961013;28;20446;-93
2023/05/13 20:49:44;;;;;;;8.43;5.83;;;;;;;;;;4949042;29;20443;-94
2023/05/13 20:52:10;;;;;;;8.97;7.07;;;;;;;;;;4940726;29;20450;-93
2023/05/13 20:54:36;;;;;;;7.67;6.77;;;;;;;;;;4946339;29;20462;-93
2023/05/13 20:57:02;;;;;;;6.00;5.40;;;;;;;;;;4946796;28;20442;-93
2023/05/13 20:59:29;;;;;;;5.57;5.00;;;;;;;;;;4946295;29;20467;-94
2023/05/13 21:01:55;;;;;;;7.20;5.80;;;;;;;;;;4971285;28;20430;-94
2023/05/13 21:04:24;;;;;;;7.63;6.20;;;;;;;;;;4951037;28;20517;-94
2023/05/13 21:06:50;;;;;;;6.90;6.20;;;;;;;;;;4961165;28;20513;-93
2023/05/13 21:09:16;;;;;;;8.00;6.57;;;;;;;;;;4962395;28;20622;-94
2023/05/13 21:11:42;;;;;;;8.40;5.90;;;;;;;;;;4946829;29;20989;-93
2023/05/13 21:14:08;;;;;;;6.93;6.17;;;;;;;;;;4943934;29;20514;-95
2023/05/13 21:16:34;;;;;;;9.83;6.97;;;;;;;;;;4931055;29;20466;-94
2023/05/13 21:19:01;;;;;;;7.40;5.73;;;;;;;;;;4955474;28;20505;-94
2023/05/13 21:21:27;;;;;;;7.37;6.37;;;;;;;;;;4932766;29;20523;-94
2023/05/13 21:23:53;;;;;;;8.57;6.80;;;;;;;;;;4927631;29;20436;-94
2023/05/13 21:26:19;;;;;;;7.70;6.90;;;;;;;;;;4925374;28;20537;-93
2023/05/13 21:28:45;;;;;;;7.67;5.70;;;;;;;;;;4937922;29;20467;-93
2023/05/13 21:31:10;;;;;;;5.73;5.13;;;;;;;;;;4920961;29;20440;-93
2023/05/13 21:33:36;;;;;;;7.53;5.63;;;;;;;;;;4927090;29;20444;-92
2023/05/13 21:36:02;;;;;;;7.43;6.00;;;;;;;;;;4922958;29;20529;-92
2023/05/13 21:38:28;;;;;;;10.90;6.57;;;;;;;;;;4916616;29;20524;-92
2023/05/13 21:40:54;;;;;;;7.40;6.57;;;;;;;;;;4928341;29;20427;-92
2023/05/13 21:43:20;;;;;;;7.70;6.40;;;;;;;;;;4929312;29;20463;-92
2023/05/13 21:45:47;;;;;;;11.80;5.80;;;;;;;;;;4928734;29;20510;-93
2023/05/13 21:48:13;;;;;;;7.13;6.23;;;;;;;;;;4944612;29;20458;-93
2023/05/13 21:50:39;;;;;;;7.70;6.17;;;;;;;;;;4945521;29;20430;-94
2023/05/13 21:53:05;;;;;;;8.90;6.77;;;;;;;;;;4932062;29;20428;-94
2023/05/13 21:55:33;;;;;;;8.10;6.63;;;;;;;;;;4926576;29;20583;-95
2023/05/13 21:58:00;;;;;;;10.70;6.20;;;;;;;;;;4934631;28;20475;-93
2023/05/13 22:00:26;;;;;;;8.83;7.07;;;;;;;;;;4943837;28;20489;-93
2023/05/13 22:02:52;;;;;;;8.27;6.73;;;;;;;;;;4948551;29;20423;-93
2023/05/13 22:05:18;;;;;;;9.40;8.30;;;;;;;;;;4919202;29;20539;-93
2023/05/13 22:07:44;;;;;;;8.80;7.50;;;;;;;;;;4888047;28;20625;-93
2023/05/13 22:10:10;;;;;;;9.87;7.00;;;;;;;;;;4884751;29;20508;-93
2023/05/13 22:12:38;;;;;;;7.57;6.77;;;;;;;;;;4891860;29;20486;-94
2023/05/13 22:15:04;;;;;;;7.57;6.87;;;;;;;;;;4905781;29;20501;-93
2023/05/13 22:17:30;;;;;;;9.50;8.60;;;;;;;;;;4891682;29;20429;-93
2023/05/13 22:19:56;;;;;;;8.60;7.73;;;;;;;;;;4886734;29;20900;-94
2023/05/13 22:22:22;;;;;;;10.03;7.80;;;;;;;;;;4888795;29;20551;-94
2023/05/13 22:24:48;;;;;;;8.00;6.13;;;;;;;;;;4878031;29;20477;-94
2023/05/13 22:27:14;;;;;;;7.17;6.50;;;;;;;;;;4903187;29;20436;-93
2023/05/13 22:29:40;;;;;;;8.13;6.83;;;;;;;;;;4918495;29;20443;-91
2023/05/13 22:32:06;;;;;;;7.13;6.43;;;;;;;;;;4886901;29;20523;-91
2023/05/13 22:34:32;;;;;;;7.53;6.17;;;;;;;;;;4885298;29;20786;-91
2023/05/13 22:36:58;;;;;;;7.73;6.83;;;;;;;;;;4926095;28;20517;-91
2023/05/13 22:39:25;;;;;;;7.97;7.20;;;;;;;;;;4948839;29;20459;-90
2023/05/13 22:41:53;;;;;;;13.93;7.90;;;;;;;;;;4928111;29;20441;-91
2023/05/13 22:44:19;;;;;;;8.37;7.57;;;;;;;;;;4958794;28;20566;-91
2023/05/13 22:46:45;;;;;;;9.50;8.00;;;;;;;;;;4937813;29;20443;-91
2023/05/13 22:49:11;;;;;;;8.77;7.83;;;;;;;;;;4956418;29;20427;-90
2023/05/13 22:51:37;;;;;;;9.00;8.10;;;;;;;;;;4923704;28;20537;-91
2023/05/13 22:54:03;;;;;;;9.60;8.00;;;;;;;;;;4924140;29;20450;-90
2023/05/13 22:56:29;;;;;;;8.50;7.23;;;;;;;;;;4923108;29;20517;-91
2023/05/13 22:58:55;;;;;;;8.00;7.10;;;;;;;;;;4948189;29;20462;-91
2023/05/13 23:01:21;;;;;;;9.47;8.47;;;;;;;;;;4929510;28;20430;-90
2023/05/13 23:03:47;;;;;;;7.47;6.50;;;;;;;;;;4929100;29;21000;-91
2023/05/13 23:06:13;;;;;;;8.87;7.97;;;;;;;;;;4942876;28;20518;-91
2023/05/13 23:08:39;;;;;;;11.60;9.90;;;;;;;;;;4949084;28;20437;-91
2023/05/13 23:11:08;;;;;;;8.90;7.33;;;;;;;;;;4953421;28;20446;-91
2023/05/13 23:13:34;;;;;;;8.57;7.67;;;;;;;;;;4951543;29;20438;-90
2023/05/13 23:15:59;;;;;;;10.17;8.10;;;;;;;;;;4964838;28;20426;-93
2023/05/13 23:18:25;;;;;;;9.70;8.13;;;;;;;;;;4930960;28;20930;-93
2023/05/13 23:20:52;;;;;;;9.30;8.30;;;;;;;;;;4959873;28;20476;-93
2023/05/13 23:23:18;;;;;;;9.13;8.10;;;;;;;;;;4948769;28;20442;-93
2023/05/13 23:25:44;;;;;;;8.57;7.10;;;;;;;;;;4962143;28;20446;-93
2023/05/13 23:28:10;;;;;;;9.20;8.07;;;;;;;;;;4945282;28;20455;-94
2023/05/13 23:30:36;;;;;;;10.13;8.00;;;;;;;;;;4961084;28;20430;-93
2023/05/13 23:33:02;;;;;;;12.53;7.20;;;;;;;;;;4954171;28;20445;-93
2023/05/13 23:35:28;;;;;;;12.40;10.90;;;;;;;;;;4971637;28;20439;-93
2023/05/13 23:37:54;;;;;;;9.13;8.23;;;;;;;;;;4933915;28;20441;-93
2023/05/13 23:40:20;;;;;;;8.37;7.53;;;;;;;;;;4951945;29;20438;-93
2023/05/13 23:42:46;;;;;;;9.70;8.30;;;;;;;;;;4964852;28;20422;-93
2023/05/13 23:45:12;;;;;;;9.87;8.37;;;;;;;;;;4959144;28;20434;-92
2023/05/13 23:47:38;;;;;;;7.63;6.83;;;;;;;;;;4961064;28;20445;-93
2023/05/13 23:50:05;;;;;;;7.13;6.37;;;;;;;;;;4968576;28;20440;-93
2023/05/13 23:52:31;;;;;;;8.17;7.03;;;;;;;;;;4955121;28;20452;-93
2023/05/13 23:54:57;;;;;;;8.03;6.57;;;;;;;;;;4947969;29;20431;-92
2023/05/13 23:57:23;;;;;;;7.60;6.80;;;;;;;;;;4951550;28;20510;-92
2023/05/13 23:59:49;;;;;;;9.90;7.60;;;;;;;;;;4950925;29;20451;-93
